Abidjan, Ivory Coast

8:16 AM GMT on April 21, 2015 (GMT +0000)
Felix Houphouet-Boigny | | Change Station
CLOSE
Current Station
Airport
Location: Abidjan,
Elevation: 26 ft
Nearby Weather Stations

Elev 26 ft 5.26 °N, 3.93 °W | Updated 16 minutes ago

Mostly Cloudy
Mostly Cloudy
82 °F
Feels Like 94 °F
N
1
Wind Variable Wind from Variable

Today
High -- | Low -- °F
--% Chance of Precip.
Yesterday
High -- | Low -- °F
Precip. -- in
6:06 AM 6:22 PM
Waxing Crescent, 9% visible
Pressure 29.86 in
Visibility 4.3 miles
Clouds Mostly Cloudy 1100 ft
Heat Index 94 °F
Dew Point 81 °F
Humidity 94%
Rainfall 0.00 in
Snow Depth Not available.
UV 2 out of 12
Pollen Not available.
Air Quality Not available.
Flu Activity Not available.
METAR DIAP 210800Z VRB01KT 7000 BKN011 28/27 Q1011 NOSIG

More Conditions Fewer Conditions

Pressure 29.86 in
Visibility 4.3 miles
Clouds Mostly Cloudy 1100 ft
Heat Index 94 °F
Dew Point 81 °F
Humidity 94%
Rainfall 0.00 in
Snow Depth Not available.
UV 2 out of 12
Pollen Not available.
Air Quality Not available.
Flu Activity Not available.
METAR DIAP 210800Z VRB01KT 7000 BKN011 28/27 Q1011 NOSIG

More Conditions Fewer Conditions

10-Day Weather Forecast

Almanac

Astronomy

Apr. 21, 2015 Rise Set
Actual Time
Civil Twilight
Nautical Twilight
Astronomical Twilight
Moon
Length of Visible Light
Length of Day
Tomorrow will be .
, % of the Moon is Illuminated

Today's Extremes

Country Highs Country Lows

Community

WunderPhotos

Upload Photos

1,815,329 photos uploaded!

WunderBlogs® & News

Nearby

Air Quality

  Air Quality AQ Index Pollutant
Not available.

Snow Depth

Station Depth Elevation

Earthquake Activity

City Distance Mag. Time & Date
Minimum magnitude displayed is 2.5.

Coastal Water Temperatures

Place Temperature

Stations

Nearby Weather Stations

Station Location Temp. Windchill Dew Point Humidity Wind Precip. Elev Updated Type